sensor_id;sensor_type;location;lat;lon;timestamp;P1;durP1;ratioP1;P2;durP2;ratioP2
35901;SDS011;50775;44.112;12.316;2022-07-29T00:01:52;4.55;;;3.30;;
35901;SDS011;50775;44.112;12.316;2022-07-29T00:04:18;6.05;;;3.60;;
35901;SDS011;50775;44.112;12.316;2022-07-29T00:06:44;4.10;;;3.65;;
35901;SDS011;50775;44.112;12.316;2022-07-29T00:09:10;5.07;;;3.40;;
35901;SDS011;50775;44.112;12.316;2022-07-29T00:11:36;6.50;;;3.28;;
35901;SDS011;50775;44.112;12.316;2022-07-29T00:14:01;4.30;;;3.45;;
35901;SDS011;50775;44.112;12.316;2022-07-29T00:16:27;5.10;;;3.40;;
35901;SDS011;50775;44.112;12.316;2022-07-29T00:18:53;5.88;;;3.88;;
35901;SDS011;50775;44.112;12.316;2022-07-29T00:21:18;4.85;;;3.42;;
35901;SDS011;50775;44.112;12.316;2022-07-29T00:23:44;5.22;;;3.45;;
35901;SDS011;50775;44.112;12.316;2022-07-29T00:26:10;5.38;;;3.63;;
35901;SDS011;50775;44.112;12.316;2022-07-29T00:28:36;5.07;;;3.50;;
35901;SDS011;50775;44.112;12.316;2022-07-29T00:31:01;4.80;;;3.75;;
35901;SDS011;50775;44.112;12.316;2022-07-29T00:33:28;5.18;;;3.60;;
35901;SDS011;50775;44.112;12.316;2022-07-29T00:35:53;4.28;;;3.20;;
35901;SDS011;50775;44.112;12.316;2022-07-29T00:38:20;4.57;;;3.50;;
35901;SDS011;50775;44.112;12.316;2022-07-29T00:40:46;4.82;;;2.97;;
35901;SDS011;50775;44.112;12.316;2022-07-29T00:43:12;4.07;;;3.40;;
35901;SDS011;50775;44.112;12.316;2022-07-29T00:45:40;4.50;;;3.53;;
35901;SDS011;50775;44.112;12.316;2022-07-29T00:48:06;5.90;;;3.45;;
35901;SDS011;50775;44.112;12.316;2022-07-29T00:50:33;5.32;;;3.55;;
35901;SDS011;50775;44.112;12.316;2022-07-29T00:53:00;3.60;;;3.13;;
35901;SDS011;50775;44.112;12.316;2022-07-29T00:55:27;3.78;;;3.17;;
35901;SDS011;50775;44.112;12.316;2022-07-29T00:57:54;4.97;;;3.58;;
35901;SDS011;50775;44.112;12.316;2022-07-29T01:00:22;5.03;;;3.70;;
35901;SDS011;50775;44.112;12.316;2022-07-29T01:02:49;6.93;;;3.75;;
35901;SDS011;50775;44.112;12.316;2022-07-29T01:05:19;5.03;;;3.92;;
35901;SDS011;50775;44.112;12.316;2022-07-29T01:07:48;5.00;;;3.50;;
35901;SDS011;50775;44.112;12.316;2022-07-29T01:12:43;3.80;;;3.30;;
35901;SDS011;50775;44.112;12.316;2022-07-29T01:15:11;4.20;;;3.22;;
35901;SDS011;50775;44.112;12.316;2022-07-29T01:23:01;5.75;;;3.17;;
35901;SDS011;50775;44.112;12.316;2022-07-29T01:31:31;4.20;;;3.47;;
35901;SDS011;50775;44.112;12.316;2022-07-29T01:34:05;4.65;;;3.50;;
35901;SDS011;50775;44.112;12.316;2022-07-29T01:36:36;4.82;;;3.53;;
35901;SDS011;50775;44.112;12.316;2022-07-29T01:39:14;4.43;;;3.35;;
35901;SDS011;50775;44.112;12.316;2022-07-29T01:42:06;5.15;;;3.47;;
35901;SDS011;50775;44.112;12.316;2022-07-29T01:44:39;4.65;;;3.45;;
35901;SDS011;50775;44.112;12.316;2022-07-29T01:47:19;3.53;;;3.20;;
35901;SDS011;50775;44.112;12.316;2022-07-29T01:49:48;4.03;;;3.35;;
35901;SDS011;50775;44.112;12.316;2022-07-29T01:52:27;4.63;;;3.47;;
35901;SDS011;50775;44.112;12.316;2022-07-29T01:55:02;5.13;;;3.50;;
35901;SDS011;50775;44.112;12.316;2022-07-29T01:57:33;4.38;;;3.47;;
35901;SDS011;50775;44.112;12.316;2022-07-29T02:00:03;4.88;;;3.47;;
35901;SDS011;50775;44.112;12.316;2022-07-29T02:02:30;3.78;;;3.08;;
35901;SDS011;50775;44.112;12.316;2022-07-29T02:04:58;5.25;;;3.28;;
35901;SDS011;50775;44.112;12.316;2022-07-29T02:07:28;4.95;;;3.38;;
35901;SDS011;50775;44.112;12.316;2022-07-29T02:09:56;4.72;;;3.80;;
35901;SDS011;50775;44.112;12.316;2022-07-29T02:12:24;3.42;;;3.10;;
35901;SDS011;50775;44.112;12.316;2022-07-29T02:14:53;4.30;;;3.40;;
35901;SDS011;50775;44.112;12.316;2022-07-29T02:17:30;5.47;;;3.28;;
35901;SDS011;50775;44.112;12.316;2022-07-29T02:19:59;4.68;;;3.30;;
35901;SDS011;50775;44.112;12.316;2022-07-29T02:22:28;3.80;;;3.45;;
35901;SDS011;50775;44.112;12.316;2022-07-29T02:24:57;5.03;;;3.53;;
35901;SDS011;50775;44.112;12.316;2022-07-29T02:27:23;6.63;;;3.40;;
35901;SDS011;50775;44.112;12.316;2022-07-29T02:29:52;3.42;;;2.97;;
35901;SDS011;50775;44.112;12.316;2022-07-29T02:32:20;4.53;;;3.40;;
35901;SDS011;50775;44.112;12.316;2022-07-29T02:34:47;5.68;;;3.63;;
35901;SDS011;50775;44.112;12.316;2022-07-29T02:37:15;5.43;;;3.67;;
35901;SDS011;50775;44.112;12.316;2022-07-29T02:39:42;4.85;;;3.28;;
35901;SDS011;50775;44.112;12.316;2022-07-29T02:42:10;5.03;;;3.63;;
35901;SDS011;50775;44.112;12.316;2022-07-29T02:44:39;4.25;;;3.42;;
35901;SDS011;50775;44.112;12.316;2022-07-29T02:53:12;4.18;;;3.45;;
35901;SDS011;50775;44.112;12.316;2022-07-29T02:55:56;4.68;;;3.50;;
35901;SDS011;50775;44.112;12.316;2022-07-29T02:58:27;4.38;;;3.33;;
35901;SDS011;50775;44.112;12.316;2022-07-29T03:01:03;4.72;;;3.38;;
35901;SDS011;50775;44.112;12.316;2022-07-29T03:03:37;4.50;;;3.22;;
35901;SDS011;50775;44.112;12.316;2022-07-29T03:06:04;4.65;;;3.40;;
35901;SDS011;50775;44.112;12.316;2022-07-29T03:08:31;4.85;;;3.53;;
35901;SDS011;50775;44.112;12.316;2022-07-29T03:10:59;5.03;;;3.22;;
35901;SDS011;50775;44.112;12.316;2022-07-29T03:13:26;5.82;;;3.70;;
35901;SDS011;50775;44.112;12.316;2022-07-29T03:15:54;4.40;;;3.13;;
35901;SDS011;50775;44.112;12.316;2022-07-29T03:18:20;4.38;;;3.45;;
35901;SDS011;50775;44.112;12.316;2022-07-29T03:20:47;4.47;;;3.50;;
35901;SDS011;50775;44.112;12.316;2022-07-29T03:23:14;4.18;;;3.40;;
35901;SDS011;50775;44.112;12.316;2022-07-29T03:25:45;3.40;;;3.10;;
35901;SDS011;50775;44.112;12.316;2022-07-29T03:28:11;4.68;;;3.38;;
35901;SDS011;50775;44.112;12.316;2022-07-29T03:30:36;4.00;;;3.38;;
35901;SDS011;50775;44.112;12.316;2022-07-29T03:33:02;4.35;;;3.33;;
35901;SDS011;50775;44.112;12.316;2022-07-29T03:35:28;3.80;;;3.38;;
35901;SDS011;50775;44.112;12.316;2022-07-29T03:37:56;3.87;;;3.23;;
35901;SDS011;50775;44.112;12.316;2022-07-29T03:40:24;4.18;;;3.35;;
35901;SDS011;50775;44.112;12.316;2022-07-29T03:42:55;3.90;;;3.05;;
35901;SDS011;50775;44.112;12.316;2022-07-29T03:45:21;4.22;;;3.58;;
35901;SDS011;50775;44.112;12.316;2022-07-29T03:47:50;4.30;;;3.28;;
35901;SDS011;50775;44.112;12.316;2022-07-29T03:50:20;5.63;;;3.40;;
35901;SDS011;50775;44.112;12.316;2022-07-29T03:52:47;4.00;;;3.30;;
35901;SDS011;50775;44.112;12.316;2022-07-29T03:55:13;4.00;;;3.60;;
35901;SDS011;50775;44.112;12.316;2022-07-29T03:57:40;4.10;;;3.50;;
35901;SDS011;50775;44.112;12.316;2022-07-29T04:00:06;4.15;;;3.38;;
35901;SDS011;50775;44.112;12.316;2022-07-29T04:02:33;4.13;;;3.17;;
35901;SDS011;50775;44.112;12.316;2022-07-29T04:05:00;5.35;;;3.10;;
35901;SDS011;50775;44.112;12.316;2022-07-29T04:07:26;5.50;;;3.22;;
35901;SDS011;50775;44.112;12.316;2022-07-29T04:09:52;5.18;;;3.60;;
35901;SDS011;50775;44.112;12.316;2022-07-29T04:12:18;5.57;;;3.30;;
35901;SDS011;50775;44.112;12.316;2022-07-29T04:14:43;4.97;;;3.50;;
35901;SDS011;50775;44.112;12.316;2022-07-29T04:17:09;4.07;;;3.47;;
35901;SDS011;50775;44.112;12.316;2022-07-29T04:19:35;4.78;;;3.40;;
35901;SDS011;50775;44.112;12.316;2022-07-29T04:22:00;4.82;;;3.50;;
35901;SDS011;50775;44.112;12.316;2022-07-29T04:24:27;4.55;;;3.50;;
35901;SDS011;50775;44.112;12.316;2022-07-29T04:26:53;4.07;;;3.30;;
35901;SDS011;50775;44.112;12.316;2022-07-29T04:29:19;4.20;;;3.20;;
35901;SDS011;50775;44.112;12.316;2022-07-29T04:31:45;5.07;;;3.13;;
35901;SDS011;50775;44.112;12.316;2022-07-29T04:34:11;5.55;;;3.35;;
35901;SDS011;50775;44.112;12.316;2022-07-29T04:36:37;4.40;;;3.53;;
35901;SDS011;50775;44.112;12.316;2022-07-29T04:39:03;3.95;;;3.25;;
35901;SDS011;50775;44.112;12.316;2022-07-29T04:41:29;4.78;;;3.42;;
35901;SDS011;50775;44.112;12.316;2022-07-29T04:43:56;4.38;;;3.10;;
35901;SDS011;50775;44.112;12.316;2022-07-29T04:46:21;4.63;;;3.50;;
35901;SDS011;50775;44.112;12.316;2022-07-29T04:48:47;5.22;;;3.42;;
35901;SDS011;50775;44.112;12.316;2022-07-29T04:51:16;4.65;;;3.53;;
35901;SDS011;50775;44.112;12.316;2022-07-29T04:53:42;4.10;;;3.45;;
35901;SDS011;50775;44.112;12.316;2022-07-29T04:56:07;3.80;;;3.40;;
35901;SDS011;50775;44.112;12.316;2022-07-29T04:58:34;5.15;;;3.42;;
35901;SDS011;50775;44.112;12.316;2022-07-29T05:01:00;3.92;;;3.30;;
35901;SDS011;50775;44.112;12.316;2022-07-29T05:03:26;5.70;;;3.40;;
35901;SDS011;50775;44.112;12.316;2022-07-29T05:05:52;4.95;;;3.40;;
35901;SDS011;50775;44.112;12.316;2022-07-29T05:08:18;4.93;;;3.20;;
35901;SDS011;50775;44.112;12.316;2022-07-29T05:10:44;5.07;;;3.30;;
35901;SDS011;50775;44.112;12.316;2022-07-29T05:13:10;4.15;;;3.20;;
35901;SDS011;50775;44.112;12.316;2022-07-29T05:15:36;4.50;;;3.40;;
35901;SDS011;50775;44.112;12.316;2022-07-29T05:18:02;5.35;;;3.33;;
35901;SDS011;50775;44.112;12.316;2022-07-29T05:20:28;5.15;;;3.50;;
35901;SDS011;50775;44.112;12.316;2022-07-29T05:22:55;5.95;;;3.28;;
35901;SDS011;50775;44.112;12.316;2022-07-29T05:25:23;5.50;;;3.35;;
35901;SDS011;50775;44.112;12.316;2022-07-29T05:27:49;5.60;;;3.60;;
35901;SDS011;50775;44.112;12.316;2022-07-29T05:30:15;4.22;;;3.45;;
35901;SDS011;50775;44.112;12.316;2022-07-29T05:32:41;4.45;;;3.50;;
35901;SDS011;50775;44.112;12.316;2022-07-29T05:35:07;5.22;;;3.40;;
35901;SDS011;50775;44.112;12.316;2022-07-29T05:37:34;5.32;;;3.38;;
35901;SDS011;50775;44.112;12.316;2022-07-29T05:39:59;4.82;;;3.20;;
35901;SDS011;50775;44.112;12.316;2022-07-29T05:42:25;4.13;;;3.47;;
35901;SDS011;50775;44.112;12.316;2022-07-29T05:44:52;4.32;;;3.30;;
35901;SDS011;50775;44.112;12.316;2022-07-29T05:47:18;4.07;;;3.13;;
35901;SDS011;50775;44.112;12.316;2022-07-29T05:49:43;3.83;;;3.08;;
35901;SDS011;50775;44.112;12.316;2022-07-29T05:52:10;4.00;;;2.80;;
35901;SDS011;50775;44.112;12.316;2022-07-29T05:54:36;4.28;;;3.20;;
35901;SDS011;50775;44.112;12.316;2022-07-29T05:57:01;4.47;;;3.20;;
35901;SDS011;50775;44.112;12.316;2022-07-29T05:59:27;3.40;;;3.00;;
35901;SDS011;50775;44.112;12.316;2022-07-29T06:01:54;4.25;;;3.00;;
35901;SDS011;50775;44.112;12.316;2022-07-29T06:04:20;4.25;;;3.10;;
35901;SDS011;50775;44.112;12.316;2022-07-29T06:06:45;3.83;;;3.22;;
35901;SDS011;50775;44.112;12.316;2022-07-29T06:09:11;4.53;;;3.50;;
35901;SDS011;50775;44.112;12.316;2022-07-29T06:11:37;4.28;;;3.10;;
35901;SDS011;50775;44.112;12.316;2022-07-29T06:14:03;4.88;;;3.20;;
35901;SDS011;50775;44.112;12.316;2022-07-29T06:16:29;6.43;;;3.53;;
35901;SDS011;50775;44.112;12.316;2022-07-29T06:18:54;4.35;;;3.30;;
35901;SDS011;50775;44.112;12.316;2022-07-29T06:21:20;5.70;;;3.50;;
35901;SDS011;50775;44.112;12.316;2022-07-29T06:23:46;4.22;;;3.53;;
35901;SDS011;50775;44.112;12.316;2022-07-29T06:26:11;4.55;;;3.30;;
35901;SDS011;50775;44.112;12.316;2022-07-29T06:28:38;6.25;;;3.65;;
35901;SDS011;50775;44.112;12.316;2022-07-29T06:31:04;4.47;;;3.20;;
35901;SDS011;50775;44.112;12.316;2022-07-29T06:33:30;4.18;;;3.17;;
35901;SDS011;50775;44.112;12.316;2022-07-29T06:35:56;3.75;;;3.35;;
35901;SDS011;50775;44.112;12.316;2022-07-29T06:38:22;4.93;;;3.33;;
35901;SDS011;50775;44.112;12.316;2022-07-29T06:40:47;5.68;;;3.83;;
35901;SDS011;50775;44.112;12.316;2022-07-29T06:43:26;6.20;;;3.40;;
35901;SDS011;50775;44.112;12.316;2022-07-29T06:45:54;6.60;;;3.95;;
35901;SDS011;50775;44.112;12.316;2022-07-29T06:48:19;6.03;;;3.83;;
35901;SDS011;50775;44.112;12.316;2022-07-29T06:50:45;5.30;;;3.60;;
35901;SDS011;50775;44.112;12.316;2022-07-29T06:53:11;5.72;;;3.95;;
35901;SDS011;50775;44.112;12.316;2022-07-29T06:55:36;4.82;;;3.90;;
35901;SDS011;50775;44.112;12.316;2022-07-29T06:58:02;4.22;;;3.53;;
35901;SDS011;50775;44.112;12.316;2022-07-29T07:00:28;6.68;;;3.80;;
35901;SDS011;50775;44.112;12.316;2022-07-29T07:02:54;5.28;;;3.75;;
35901;SDS011;50775;44.112;12.316;2022-07-29T07:05:19;4.65;;;3.75;;
35901;SDS011;50775;44.112;12.316;2022-07-29T07:07:45;7.45;;;3.92;;
35901;SDS011;50775;44.112;12.316;2022-07-29T07:10:11;6.65;;;3.78;;
35901;SDS011;50775;44.112;12.316;2022-07-29T07:12:36;6.03;;;4.22;;
35901;SDS011;50775;44.112;12.316;2022-07-29T07:15:02;6.13;;;3.85;;
35901;SDS011;50775;44.112;12.316;2022-07-29T07:17:28;5.35;;;4.18;;
35901;SDS011;50775;44.112;12.316;2022-07-29T07:19:54;4.30;;;3.67;;
35901;SDS011;50775;44.112;12.316;2022-07-29T07:22:19;8.10;;;3.80;;
35901;SDS011;50775;44.112;12.316;2022-07-29T07:24:45;6.10;;;4.40;;
35901;SDS011;50775;44.112;12.316;2022-07-29T07:27:11;5.85;;;4.10;;
35901;SDS011;50775;44.112;12.316;2022-07-29T07:29:37;4.35;;;3.70;;
35901;SDS011;50775;44.112;12.316;2022-07-29T07:32:06;6.35;;;4.15;;
35901;SDS011;50775;44.112;12.316;2022-07-29T07:34:32;6.75;;;4.50;;
35901;SDS011;50775;44.112;12.316;2022-07-29T07:36:58;7.72;;;4.20;;
35901;SDS011;50775;44.112;12.316;2022-07-29T07:39:24;7.05;;;4.22;;
35901;SDS011;50775;44.112;12.316;2022-07-29T07:41:52;7.57;;;4.13;;
35901;SDS011;50775;44.112;12.316;2022-07-29T07:44:18;6.88;;;4.40;;
35901;SDS011;50775;44.112;12.316;2022-07-29T07:46:43;5.82;;;4.28;;
35901;SDS011;50775;44.112;12.316;2022-07-29T07:49:10;7.47;;;4.45;;
35901;SDS011;50775;44.112;12.316;2022-07-29T07:51:36;6.55;;;4.32;;
35901;SDS011;50775;44.112;12.316;2022-07-29T07:54:01;5.35;;;4.10;;
35901;SDS011;50775;44.112;12.316;2022-07-29T07:56:27;5.18;;;4.40;;
35901;SDS011;50775;44.112;12.316;2022-07-29T07:58:53;6.25;;;4.38;;
35901;SDS011;50775;44.112;12.316;2022-07-29T08:01:19;7.28;;;4.30;;
35901;SDS011;50775;44.112;12.316;2022-07-29T08:03:48;6.95;;;4.60;;
35901;SDS011;50775;44.112;12.316;2022-07-29T08:06:16;7.82;;;4.88;;
35901;SDS011;50775;44.112;12.316;2022-07-29T08:08:42;6.55;;;4.28;;
35901;SDS011;50775;44.112;12.316;2022-07-29T08:11:07;7.78;;;4.35;;
35901;SDS011;50775;44.112;12.316;2022-07-29T08:13:33;8.32;;;4.35;;
35901;SDS011;50775;44.112;12.316;2022-07-29T08:15:59;6.60;;;4.47;;
35901;SDS011;50775;44.112;12.316;2022-07-29T08:18:30;7.47;;;4.70;;
35901;SDS011;50775;44.112;12.316;2022-07-29T08:20:56;7.30;;;4.90;;
35901;SDS011;50775;44.112;12.316;2022-07-29T08:23:22;5.75;;;4.18;;
35901;SDS011;50775;44.112;12.316;2022-07-29T08:25:48;7.45;;;4.68;;
35901;SDS011;50775;44.112;12.316;2022-07-29T08:28:15;7.53;;;4.85;;
35901;SDS011;50775;44.112;12.316;2022-07-29T08:30:41;7.05;;;4.55;;
35901;SDS011;50775;44.112;12.316;2022-07-29T08:33:07;6.90;;;4.13;;
35901;SDS011;50775;44.112;12.316;2022-07-29T08:35:32;7.50;;;4.50;;
35901;SDS011;50775;44.112;12.316;2022-07-29T08:37:58;7.50;;;4.90;;
35901;SDS011;50775;44.112;12.316;2022-07-29T08:40:24;6.35;;;4.38;;
35901;SDS011;50775;44.112;12.316;2022-07-29T08:42:51;6.15;;;4.63;;
35901;SDS011;50775;44.112;12.316;2022-07-29T08:45:16;6.32;;;4.60;;
35901;SDS011;50775;44.112;12.316;2022-07-29T08:47:44;6.68;;;4.68;;
35901;SDS011;50775;44.112;12.316;2022-07-29T08:50:10;5.38;;;4.00;;
35901;SDS011;50775;44.112;12.316;2022-07-29T08:52:37;5.97;;;4.60;;
35901;SDS011;50775;44.112;12.316;2022-07-29T08:55:05;6.47;;;4.50;;
35901;SDS011;50775;44.112;12.316;2022-07-29T08:57:32;6.85;;;4.03;;
35901;SDS011;50775;44.112;12.316;2022-07-29T08:59:59;6.38;;;4.63;;
35901;SDS011;50775;44.112;12.316;2022-07-29T09:02:29;5.63;;;4.50;;
35901;SDS011;50775;44.112;12.316;2022-07-29T09:05:00;8.40;;;4.50;;
35901;SDS011;50775;44.112;12.316;2022-07-29T09:07:27;8.98;;;4.50;;
35901;SDS011;50775;44.112;12.316;2022-07-29T09:09:53;6.88;;;4.20;;
35901;SDS011;50775;44.112;12.316;2022-07-29T09:12:19;6.63;;;4.47;;
35901;SDS011;50775;44.112;12.316;2022-07-29T09:14:47;6.30;;;4.57;;
35901;SDS011;50775;44.112;12.316;2022-07-29T09:17:13;7.47;;;4.80;;
35901;SDS011;50775;44.112;12.316;2022-07-29T09:19:41;9.45;;;4.70;;
35901;SDS011;50775;44.112;12.316;2022-07-29T09:22:07;5.70;;;4.45;;
35901;SDS011;50775;44.112;12.316;2022-07-29T09:24:42;5.40;;;4.25;;
35901;SDS011;50775;44.112;12.316;2022-07-29T09:27:10;5.82;;;4.35;;
35901;SDS011;50775;44.112;12.316;2022-07-29T09:29:43;6.20;;;4.30;;
35901;SDS011;50775;44.112;12.316;2022-07-29T09:32:09;6.55;;;4.35;;
35901;SDS011;50775;44.112;12.316;2022-07-29T09:34:36;8.07;;;4.47;;
35901;SDS011;50775;44.112;12.316;2022-07-29T09:37:02;5.90;;;4.20;;
35901;SDS011;50775;44.112;12.316;2022-07-29T09:42:04;5.78;;;4.07;;
35901;SDS011;50775;44.112;12.316;2022-07-29T09:44:47;6.30;;;4.30;;
35901;SDS011;50775;44.112;12.316;2022-07-29T09:47:15;5.18;;;4.38;;
35901;SDS011;50775;44.112;12.316;2022-07-29T09:49:54;5.45;;;4.20;;
35901;SDS011;50775;44.112;12.316;2022-07-29T09:52:27;6.03;;;4.43;;
35901;SDS011;50775;44.112;12.316;2022-07-29T09:55:03;5.75;;;4.28;;
35901;SDS011;50775;44.112;12.316;2022-07-29T09:57:33;6.00;;;4.50;;
35901;SDS011;50775;44.112;12.316;2022-07-29T10:00:09;5.90;;;4.25;;
35901;SDS011;50775;44.112;12.316;2022-07-29T10:02:37;6.15;;;4.10;;
35901;SDS011;50775;44.112;12.316;2022-07-29T10:05:05;5.50;;;4.38;;
35901;SDS011;50775;44.112;12.316;2022-07-29T10:07:53;5.32;;;4.43;;
35901;SDS011;50775;44.112;12.316;2022-07-29T10:10:24;5.35;;;4.22;;
35901;SDS011;50775;44.112;12.316;2022-07-29T10:13:01;5.50;;;4.40;;
35901;SDS011;50775;44.112;12.316;2022-07-29T10:15:32;5.50;;;4.55;;
35901;SDS011;50775;44.112;12.316;2022-07-29T10:18:03;6.63;;;4.45;;
35901;SDS011;50775;44.112;12.316;2022-07-29T10:20:30;7.00;;;4.30;;
35901;SDS011;50775;44.112;12.316;2022-07-29T10:22:56;6.25;;;4.78;;
35901;SDS011;50775;44.112;12.316;2022-07-29T10:25:22;5.28;;;4.15;;
35901;SDS011;50775;44.112;12.316;2022-07-29T10:27:49;5.43;;;4.13;;
35901;SDS011;50775;44.112;12.316;2022-07-29T10:30:19;7.28;;;4.50;;
35901;SDS011;50775;44.112;12.316;2022-07-29T10:35:30;5.13;;;4.00;;
35901;SDS011;50775;44.112;12.316;2022-07-29T10:38:21;6.53;;;4.50;;
35901;SDS011;50775;44.112;12.316;2022-07-29T10:41:02;5.32;;;4.50;;
35901;SDS011;50775;44.112;12.316;2022-07-29T10:43:47;7.07;;;4.38;;
35901;SDS011;50775;44.112;12.316;2022-07-29T10:46:14;5.97;;;4.28;;
35901;SDS011;50775;44.112;12.316;2022-07-29T10:54:38;6.30;;;4.70;;
35901;SDS011;50775;44.112;12.316;2022-07-29T10:57:24;6.53;;;4.53;;
35901;SDS011;50775;44.112;12.316;2022-07-29T11:04:59;6.75;;;5.18;;
35901;SDS011;50775;44.112;12.316;2022-07-29T11:07:29;7.80;;;4.95;;
35901;SDS011;50775;44.112;12.316;2022-07-29T11:12:50;6.22;;;5.00;;
35901;SDS011;50775;44.112;12.316;2022-07-29T11:15:17;7.38;;;4.60;;
35901;SDS011;50775;44.112;12.316;2022-07-29T11:22:56;6.47;;;5.00;;
35901;SDS011;50775;44.112;12.316;2022-07-29T11:25:22;7.47;;;4.90;;
35901;SDS011;50775;44.112;12.316;2022-07-29T11:27:49;7.97;;;4.80;;
35901;SDS011;50775;44.112;12.316;2022-07-29T11:30:51;7.65;;;4.85;;
35901;SDS011;50775;44.112;12.316;2022-07-29T11:33:28;5.50;;;4.95;;
35901;SDS011;50775;44.112;12.316;2022-07-29T11:36:13;5.53;;;4.63;;
35901;SDS011;50775;44.112;12.316;2022-07-29T11:38:40;6.07;;;5.05;;
35901;SDS011;50775;44.112;12.316;2022-07-29T11:43:50;6.85;;;4.70;;
35901;SDS011;50775;44.112;12.316;2022-07-29T11:49:19;5.72;;;4.57;;
35901;SDS011;50775;44.112;12.316;2022-07-29T11:51:53;8.23;;;5.18;;
35901;SDS011;50775;44.112;12.316;2022-07-29T11:54:26;7.07;;;4.88;;
35901;SDS011;50775;44.112;12.316;2022-07-29T11:56:59;6.40;;;4.60;;
35901;SDS011;50775;44.112;12.316;2022-07-29T11:59:26;6.28;;;4.50;;
35901;SDS011;50775;44.112;12.316;2022-07-29T12:04:22;8.35;;;5.30;;
35901;SDS011;50775;44.112;12.316;2022-07-29T12:06:55;6.32;;;4.93;;
35901;SDS011;50775;44.112;12.316;2022-07-29T12:09:22;5.47;;;4.63;;
35901;SDS011;50775;44.112;12.316;2022-07-29T12:11:49;6.18;;;4.60;;
35901;SDS011;50775;44.112;12.316;2022-07-29T12:14:26;6.13;;;5.03;;
35901;SDS011;50775;44.112;12.316;2022-07-29T12:16:56;5.65;;;4.80;;
35901;SDS011;50775;44.112;12.316;2022-07-29T12:19:22;5.78;;;4.55;;
35901;SDS011;50775;44.112;12.316;2022-07-29T12:21:49;7.22;;;4.70;;
35901;SDS011;50775;44.112;12.316;2022-07-29T12:24:17;6.65;;;4.97;;
35901;SDS011;50775;44.112;12.316;2022-07-29T12:26:57;5.65;;;4.82;;
35901;SDS011;50775;44.112;12.316;2022-07-29T12:29:24;7.03;;;4.70;;
35901;SDS011;50775;44.112;12.316;2022-07-29T12:31:55;5.32;;;4.53;;
35901;SDS011;50775;44.112;12.316;2022-07-29T12:34:26;7.03;;;4.68;;
35901;SDS011;50775;44.112;12.316;2022-07-29T12:36:54;6.00;;;4.93;;
35901;SDS011;50775;44.112;12.316;2022-07-29T12:39:20;5.72;;;4.75;;
35901;SDS011;50775;44.112;12.316;2022-07-29T12:41:46;7.65;;;4.90;;
35901;SDS011;50775;44.112;12.316;2022-07-29T12:44:12;6.15;;;4.50;;
35901;SDS011;50775;44.112;12.316;2022-07-29T12:46:38;6.63;;;4.82;;
35901;SDS011;50775;44.112;12.316;2022-07-29T12:49:04;5.93;;;4.47;;
35901;SDS011;50775;44.112;12.316;2022-07-29T12:51:34;5.93;;;4.28;;
35901;SDS011;50775;44.112;12.316;2022-07-29T12:54:12;6.50;;;4.60;;
35901;SDS011;50775;44.112;12.316;2022-07-29T12:56:39;6.35;;;4.70;;
35901;SDS011;50775;44.112;12.316;2022-07-29T13:04:03;6.10;;;4.00;;
35901;SDS011;50775;44.112;12.316;2022-07-29T13:13:57;7.68;;;5.32;;
35901;SDS011;50775;44.112;12.316;2022-07-29T13:16:23;5.18;;;4.47;;
35901;SDS011;50775;44.112;12.316;2022-07-29T13:18:54;5.70;;;4.80;;
35901;SDS011;50775;44.112;12.316;2022-07-29T13:21:32;6.82;;;4.70;;
35901;SDS011;50775;44.112;12.316;2022-07-29T13:23:59;6.03;;;4.43;;
35901;SDS011;50775;44.112;12.316;2022-07-29T13:26:25;4.90;;;4.40;;
35901;SDS011;50775;44.112;12.316;2022-07-29T13:28:51;5.78;;;4.40;;
35901;SDS011;50775;44.112;12.316;2022-07-29T13:31:17;6.07;;;4.78;;
35901;SDS011;50775;44.112;12.316;2022-07-29T13:33:42;7.38;;;4.85;;
35901;SDS011;50775;44.112;12.316;2022-07-29T13:36:08;5.03;;;4.53;;
35901;SDS011;50775;44.112;12.316;2022-07-29T13:38:34;6.70;;;4.95;;
35901;SDS011;50775;44.112;12.316;2022-07-29T13:41:00;5.93;;;4.47;;
35901;SDS011;50775;44.112;12.316;2022-07-29T13:43:26;5.80;;;4.57;;
35901;SDS011;50775;44.112;12.316;2022-07-29T13:45:52;5.72;;;5.13;;
35901;SDS011;50775;44.112;12.316;2022-07-29T13:48:17;7.97;;;5.10;;
35901;SDS011;50775;44.112;12.316;2022-07-29T13:50:43;8.20;;;5.80;;
35901;SDS011;50775;44.112;12.316;2022-07-29T13:53:10;8.48;;;5.53;;
35901;SDS011;50775;44.112;12.316;2022-07-29T13:55:36;5.72;;;5.10;;
35901;SDS011;50775;44.112;12.316;2022-07-29T13:58:02;7.90;;;5.80;;
35901;SDS011;50775;44.112;12.316;2022-07-29T14:00:28;7.30;;;5.43;;
35901;SDS011;50775;44.112;12.316;2022-07-29T14:02:54;9.43;;;5.35;;
35901;SDS011;50775;44.112;12.316;2022-07-29T14:05:20;9.30;;;6.03;;
35901;SDS011;50775;44.112;12.316;2022-07-29T14:07:46;11.32;;;5.40;;
35901;SDS011;50775;44.112;12.316;2022-07-29T14:10:12;8.27;;;5.50;;
35901;SDS011;50775;44.112;12.316;2022-07-29T14:12:37;9.00;;;5.22;;
35901;SDS011;50775;44.112;12.316;2022-07-29T14:15:03;10.35;;;5.20;;
35901;SDS011;50775;44.112;12.316;2022-07-29T14:17:29;8.57;;;5.05;;
35901;SDS011;50775;44.112;12.316;2022-07-29T14:19:55;9.40;;;5.22;;
35901;SDS011;50775;44.112;12.316;2022-07-29T14:22:20;8.23;;;5.53;;
35901;SDS011;50775;44.112;12.316;2022-07-29T14:24:46;7.32;;;5.32;;
35901;SDS011;50775;44.112;12.316;2022-07-29T14:27:12;7.63;;;5.53;;
35901;SDS011;50775;44.112;12.316;2022-07-29T14:29:38;8.95;;;5.70;;
35901;SDS011;50775;44.112;12.316;2022-07-29T14:32:07;8.50;;;5.22;;
35901;SDS011;50775;44.112;12.316;2022-07-29T14:34:35;10.18;;;5.43;;
35901;SDS011;50775;44.112;12.316;2022-07-29T14:37:02;8.32;;;5.32;;
35901;SDS011;50775;44.112;12.316;2022-07-29T14:39:30;8.10;;;5.60;;
35901;SDS011;50775;44.112;12.316;2022-07-29T14:41:56;8.55;;;5.47;;
35901;SDS011;50775;44.112;12.316;2022-07-29T14:44:22;9.32;;;6.35;;
35901;SDS011;50775;44.112;12.316;2022-07-29T14:46:49;11.88;;;6.88;;
35901;SDS011;50775;44.112;12.316;2022-07-29T14:49:14;14.52;;;6.97;;
35901;SDS011;50775;44.112;12.316;2022-07-29T14:51:40;8.43;;;6.18;;
35901;SDS011;50775;44.112;12.316;2022-07-29T14:54:06;10.98;;;6.00;;
35901;SDS011;50775;44.112;12.316;2022-07-29T14:56:33;9.73;;;5.70;;
35901;SDS011;50775;44.112;12.316;2022-07-29T14:58:59;9.95;;;5.35;;
35901;SDS011;50775;44.112;12.316;2022-07-29T15:01:25;10.57;;;5.78;;
35901;SDS011;50775;44.112;12.316;2022-07-29T15:03:51;8.57;;;5.65;;
35901;SDS011;50775;44.112;12.316;2022-07-29T15:06:16;8.57;;;5.25;;
35901;SDS011;50775;44.112;12.316;2022-07-29T15:08:42;7.63;;;5.13;;
35901;SDS011;50775;44.112;12.316;2022-07-29T15:11:08;7.57;;;5.32;;
35901;SDS011;50775;44.112;12.316;2022-07-29T15:13:34;8.23;;;5.20;;
35901;SDS011;50775;44.112;12.316;2022-07-29T15:16:00;7.60;;;5.05;;
35901;SDS011;50775;44.112;12.316;2022-07-29T15:18:26;6.25;;;5.13;;
35901;SDS011;50775;44.112;12.316;2022-07-29T15:20:52;10.52;;;5.40;;
35901;SDS011;50775;44.112;12.316;2022-07-29T15:23:18;7.75;;;5.15;;
35901;SDS011;50775;44.112;12.316;2022-07-29T15:25:44;7.60;;;5.45;;
35901;SDS011;50775;44.112;12.316;2022-07-29T15:28:10;7.18;;;5.20;;
35901;SDS011;50775;44.112;12.316;2022-07-29T15:30:36;8.13;;;5.22;;
35901;SDS011;50775;44.112;12.316;2022-07-29T15:33:06;6.78;;;4.75;;
35901;SDS011;50775;44.112;12.316;2022-07-29T15:35:35;7.20;;;5.30;;
35901;SDS011;50775;44.112;12.316;2022-07-29T15:38:04;6.40;;;4.63;;
35901;SDS011;50775;44.112;12.316;2022-07-29T15:40:30;7.30;;;5.53;;
35901;SDS011;50775;44.112;12.316;2022-07-29T15:42:56;5.60;;;4.85;;